createdAt,value
2023-05-06T00:04:46.112Z,22
2023-05-06T00:07:18.578Z,22
2023-05-06T00:10:16.244Z,18
2023-05-06T00:15:46.409Z,20
2023-05-06T00:21:16.489Z,19
2023-05-06T00:26:46.655Z,15
2023-05-06T00:32:16.820Z,18
2023-05-06T00:37:46.997Z,20
2023-05-06T00:43:17.158Z,22
2023-05-06T00:54:17.477Z,24
2023-05-06T00:59:47.641Z,25
2023-05-06T01:05:17.874Z,27
2023-05-06T01:07:23.954Z,27
2023-05-06T01:16:18.149Z,29
2023-05-06T01:27:18.485Z,27
2023-05-06T01:49:19.141Z,24
2023-05-06T01:54:49.299Z,25
2023-05-06T02:00:19.494Z,21
2023-05-06T02:05:49.613Z,20
2023-05-06T02:07:29.552Z,20
2023-05-06T02:11:19.787Z,19
2023-05-06T02:22:20.095Z,17
2023-05-06T02:27:50.290Z,14
2023-05-06T02:38:50.623Z,13
2023-05-06T02:44:20.723Z,14
2023-05-06T02:55:21.068Z,13
2023-05-06T03:00:51.339Z,15
2023-05-06T03:06:11.564Z,15
2023-05-06T03:11:51.539Z,12
2023-05-06T03:17:21.720Z,14
2023-05-06T03:22:51.909Z,15
2023-05-06T03:28:22.047Z,14
2023-05-06T03:33:52.203Z,16
2023-05-06T03:39:22.381Z,14
2023-05-06T03:50:22.699Z,12
2023-05-06T04:05:59.136Z,12
2023-05-06T04:23:23.707Z,11
2023-05-06T04:39:54.239Z,13
2023-05-06T04:45:24.440Z,12
2023-05-06T04:50:54.509Z,14
2023-05-06T05:01:54.891Z,17
2023-05-06T05:06:04.564Z,17
2023-05-06T05:07:25.021Z,20
2023-05-06T05:12:55.267Z,18
2023-05-06T05:23:55.542Z,19
2023-05-06T05:29:25.749Z,20
2023-05-06T05:34:55.857Z,22
2023-05-06T06:02:26.825Z,20
2023-05-06T06:06:10.130Z,20
2023-05-06T06:13:28.722Z,22
2023-05-06T06:18:57.271Z,21
2023-05-06T07:06:15.681Z,21
2023-05-06T07:13:58.913Z,17
2023-05-06T07:30:29.388Z,16
2023-05-06T07:41:29.686Z,19
2023-05-06T07:46:59.944Z,20
2023-05-06T07:58:00.208Z,18
2023-05-06T08:03:30.487Z,15
2023-05-06T08:06:21.078Z,15
2023-05-06T08:20:00.884Z,14
2023-05-06T08:25:30.997Z,13
2023-05-06T08:31:01.149Z,14
2023-05-06T08:36:31.318Z,16
2023-05-06T08:42:01.460Z,13
2023-05-06T08:47:31.661Z,14
2023-05-06T08:53:01.854Z,13
2023-05-06T09:04:02.237Z,11
2023-05-06T09:06:26.964Z,11
2023-05-06T09:09:32.274Z,13
2023-05-06T09:15:02.447Z,12
2023-05-06T09:20:32.666Z,14
2023-05-06T09:26:02.743Z,11
2023-05-06T09:31:33.016Z,12
2023-05-06T09:37:03.079Z,11
2023-05-06T09:42:33.281Z,10
2023-05-06T09:53:33.563Z,11
2023-05-06T09:59:03.808Z,12
2023-05-06T10:04:34.070Z,14
2023-05-06T10:06:32.221Z,14
2023-05-06T10:10:04.056Z,12
2023-05-06T10:21:04.426Z,14
2023-05-06T10:32:05.198Z,13
2023-05-06T10:37:34.893Z,12
2023-05-06T10:43:05.057Z,11
2023-05-06T10:48:35.301Z,12
2023-05-06T10:54:05.449Z,13
2023-05-06T10:59:35.566Z,16
2023-05-06T11:05:05.707Z,13
2023-05-06T11:06:38.088Z,13
2023-05-06T11:10:35.841Z,14
2023-05-06T11:16:05.974Z,13
2023-05-06T11:32:36.554Z,19
2023-05-06T11:38:06.756Z,12
2023-05-06T11:49:07.138Z,15
2023-05-06T11:54:37.300Z,11
2023-05-06T12:00:07.379Z,12
2023-05-06T12:05:37.625Z,13
2023-05-06T12:06:43.119Z,13
2023-05-06T12:11:07.605Z,15
2023-05-06T12:16:37.796Z,16
2023-05-06T12:22:07.965Z,13
2023-05-06T12:27:38.112Z,14
2023-05-06T12:33:08.386Z,13
2023-05-06T12:38:38.431Z,15
2023-05-06T12:44:08.776Z,16
2023-05-06T12:49:38.793Z,12
2023-05-06T13:00:39.198Z,11
2023-05-06T13:06:48.596Z,11
2023-05-06T13:11:39.399Z,13
2023-05-06T13:17:09.775Z,14
2023-05-06T13:22:50.938Z,13
2023-05-06T13:33:40.066Z,12
2023-05-06T13:39:10.212Z,13
2023-05-06T13:44:40.443Z,11
2023-05-06T13:50:10.824Z,12
2023-05-06T13:55:40.762Z,10
2023-05-06T14:06:54.102Z,10
2023-05-06T14:12:11.251Z,9
2023-05-06T14:23:11.561Z,8
2023-05-06T14:28:41.702Z,7
2023-05-06T14:34:11.845Z,9
2023-05-06T14:39:42.060Z,6
2023-05-06T14:56:12.478Z,4
2023-05-06T15:01:42.811Z,6
2023-05-06T15:06:59.680Z,6
2023-05-06T15:12:42.950Z,4
2023-05-06T15:18:13.151Z,5
2023-05-06T15:23:43.257Z,4
2023-05-06T15:34:43.596Z,6
2023-05-06T15:40:13.822Z,5
2023-05-06T15:45:43.968Z,4
2023-05-06T15:51:14.063Z,5
2023-05-06T16:07:05.144Z,5
2023-05-06T16:24:15.096Z,6
2023-05-06T16:29:45.248Z,5
2023-05-06T16:35:15.468Z,6
2023-05-06T16:40:45.555Z,5
2023-05-06T16:46:15.663Z,4
2023-05-06T16:57:16.017Z,5
2023-05-06T17:02:46.271Z,8
2023-05-06T17:07:10.615Z,8
2023-05-06T17:08:16.382Z,9
2023-05-06T17:13:46.497Z,10
2023-05-06T17:19:16.632Z,14
2023-05-06T17:24:46.800Z,13
2023-05-06T17:30:17.058Z,14
2023-05-06T17:35:47.164Z,16
2023-05-06T17:52:17.596Z,17
2023-05-06T17:57:47.736Z,18
2023-05-06T18:07:16.843Z,18
2023-05-06T18:08:48.067Z,19
2023-05-06T18:14:18.236Z,16
2023-05-06T18:19:48.403Z,14
2023-05-06T18:25:18.647Z,15
2023-05-06T18:30:48.751Z,18
2023-05-06T18:36:18.822Z,15
2023-05-06T18:41:48.984Z,16
2023-05-06T18:47:19.162Z,14
2023-05-06T18:52:49.329Z,15
2023-05-06T18:58:19.507Z,19
2023-05-06T19:03:49.683Z,16
2023-05-06T19:07:21.650Z,16
2023-05-06T19:09:19.818Z,19
2023-05-06T19:14:50.384Z,17
2023-05-06T19:20:20.436Z,19
2023-05-06T19:25:50.397Z,18
2023-05-06T19:31:20.458Z,19
2023-05-06T19:42:20.757Z,21
2023-05-06T19:47:50.949Z,18
2023-05-06T19:53:21.081Z,23
2023-05-06T19:58:51.344Z,22
2023-05-06T20:04:21.514Z,21
2023-05-06T20:07:27.121Z,21
2023-05-06T20:09:51.633Z,23
2023-05-06T20:15:21.767Z,24
2023-05-06T20:26:23.254Z,27
2023-05-06T20:31:52.254Z,24
2023-05-06T20:37:22.397Z,26
2023-05-06T20:42:52.560Z,23
2023-05-06T20:48:22.715Z,27
2023-05-06T20:53:52.871Z,25
2023-05-06T20:59:23.016Z,23
2023-05-06T21:04:53.209Z,25
2023-05-06T21:07:32.677Z,25
2023-05-06T21:10:23.346Z,23
2023-05-06T21:15:53.532Z,26
2023-05-06T21:21:23.659Z,20
2023-05-06T21:26:53.832Z,22
2023-05-06T21:37:54.174Z,21
2023-05-06T21:43:24.327Z,20
2023-05-06T21:48:54.532Z,22
2023-05-06T22:07:38.255Z,22
2023-05-06T22:10:55.168Z,24
2023-05-06T22:16:25.315Z,19
2023-05-06T22:21:55.490Z,21
2023-05-06T22:27:25.642Z,18
2023-05-06T22:32:55.841Z,19
2023-05-06T22:38:25.999Z,22
2023-05-06T22:49:26.286Z,21
2023-05-06T22:54:56.464Z,22
2023-05-06T23:00:26.639Z,24
2023-05-06T23:05:56.796Z,27
2023-05-06T23:07:43.533Z,27
2023-05-06T23:11:26.912Z,25
2023-05-06T23:16:57.100Z,29
2023-05-06T23:33:27.603Z,35
2023-05-06T23:38:57.780Z,31
2023-05-06T23:49:58.137Z,29
